Terminal Aerodrome Forecast
Issued by NWS Mt. Holly, NJ

Home | Current Version | Previous Version | Text Only | Print | Product List | Glossary On
Versions: 1 2 3 4 5 6 7 8 9 10 11 12 13 14 15 16 17 18 19
790
FTUS41 KPHI 231737
TAFILG
TAF
KILG 231737Z 2318/2418 14011KT P6SM BKN050
     FM232300 14011G20KT P6SM BKN030
     FM240100 14012G21KT P6SM VCSH BKN024
     FM240500 15016G25KT 6SM +SHRA OVC017
     FM240800 16015G25KT 3SM +SHRA OVC005 WS020/16045KT
     FM241300 18012G20KT 3SM +SHRA OVC008
     FM241700 19010KT 5SM +SHRA OVC050=

USA.gov is the U.S. government's official web portal to all federal, state and local government web resources and services.